Time;durP1;ratioP1;P1;durP2;ratioP2;P2;SDS_P1;SDS_P2;PMS_P1;PMS_P2;Temp;Humidity;BMP_temperature;BMP_pressure;BME280_temperature;BME280_humidity;BME280_pressure;Samples;Min_cycle;Max_cycle;Signal;HPM_P1;HPM_P2
2023/05/25 00:02:23;;;;;;;12.10;5.05;;;;;;;17.02;51.83;101973.88;5010132;27;98023;-71
2023/05/25 00:04:50;;;;;;;12.85;3.92;;;;;;;16.83;51.79;101975.59;5023266;27;97141;-72
2023/05/25 00:07:17;;;;;;;11.43;4.15;;;;;;;16.84;51.50;101979.13;5027202;27;96914;-70
2023/05/25 00:09:45;;;;;;;14.73;5.25;;;;;;;16.81;51.56;101980.09;5025868;27;99150;-71
2023/05/25 00:12:11;;;;;;;15.25;4.93;;;;;;;16.80;51.86;101978.41;5026862;27;99152;-70
2023/05/25 00:14:38;;;;;;;11.75;4.15;;;;;;;16.64;52.18;101980.81;5030766;27;97212;-70
2023/05/25 00:17:08;;;;;;;10.18;4.13;;;;;;;16.61;52.50;101975.59;5028946;27;96834;-71
2023/05/25 00:19:36;;;;;;;12.80;4.40;;;;;;;16.62;52.53;101979.13;5023710;27;102617;-71
2023/05/25 00:22:03;;;;;;;14.75;4.93;;;;;;;16.66;52.15;101975.44;5022919;27;98870;-71
2023/05/25 00:24:30;;;;;;;10.98;5.03;;;;;;;16.80;52.10;101978.41;5023438;27;98854;-71
2023/05/25 00:26:56;;;;;;;13.90;4.88;;;;;;;16.86;51.67;101972.81;5016493;27;97790;-71
2023/05/25 00:29:24;;;;;;;12.35;5.13;;;;;;;16.92;51.29;101977.88;5021793;27;101359;-70
2023/05/25 00:31:51;;;;;;;11.88;5.13;;;;;;;17.03;51.17;101980.09;5018586;27;99179;-71
2023/05/25 00:34:17;;;;;;;11.48;4.47;;;;;;;17.11;50.75;101978.81;5025964;27;96945;-70
2023/05/25 00:36:47;;;;;;;13.40;4.60;;;;;;;17.20;50.53;101974.88;5022174;27;97356;-70
2023/05/25 00:39:13;;;;;;;14.80;4.22;;;;;;;17.14;50.66;101976.00;5021433;27;98874;-71
2023/05/25 00:41:41;;;;;;;12.20;4.30;;;;;;;17.10;50.83;101970.88;5024224;27;98800;-71
2023/05/25 00:44:07;;;;;;;14.60;4.20;;;;;;;17.14;50.77;101975.13;5027177;27;96929;-71
2023/05/25 00:46:34;;;;;;;11.60;4.20;;;;;;;17.24;50.27;101972.94;5020948;27;97139;-71
2023/05/25 00:49:01;;;;;;;12.25;4.97;;;;;;;17.06;51.11;101972.81;5026045;27;98209;-70
2023/05/25 00:51:31;;;;;;;16.17;4.70;;;;;;;16.91;51.29;101975.28;5015920;27;98684;-70
2023/05/25 00:53:59;;;;;;;11.90;4.63;;;;;;;16.91;51.56;101977.94;5022507;27;96846;-71
2023/05/25 00:56:30;;;;;;;11.27;4.15;;;;;;;16.96;51.57;101974.13;5024085;27;96826;-71
2023/05/25 00:58:57;;;;;;;12.77;4.70;;;;;;;16.87;51.50;101973.69;5024617;27;98845;-71
2023/05/25 01:01:26;;;;;;;9.10;4.10;;;;;;;16.76;51.86;101970.56;5024221;27;100293;-71
2023/05/25 01:03:55;;;;;;;10.05;4.85;;;;;;;16.77;51.95;101965.16;5027357;27;97754;-71
2023/05/25 01:06:25;;;;;;;14.40;4.28;;;;;;;16.77;52.06;101966.97;5023298;27;97293;-71
2023/05/25 01:08:55;;;;;;;8.95;4.40;;;;;;;16.64;52.57;101969.28;5021690;27;98976;-71
2023/05/25 01:11:27;;;;;;;11.02;4.53;;;;;;;16.68;52.24;101970.88;5025192;27;98849;-71
2023/05/25 01:13:54;;;;;;;10.07;4.60;;;;;;;16.65;52.25;101969.22;5019185;27;96838;-71
2023/05/25 01:16:21;;;;;;;11.45;4.53;;;;;;;16.55;52.64;101972.28;5025052;27;96816;-71
2023/05/25 01:18:51;;;;;;;15.70;5.65;;;;;;;16.56;52.64;101974.91;5023186;27;97591;-73
2023/05/25 01:21:21;;;;;;;11.40;4.53;;;;;;;16.58;52.22;101982.84;5016472;27;98691;-71
2023/05/25 01:23:53;;;;;;;10.32;4.47;;;;;;;16.67;52.47;101972.69;5017604;27;100908;-71
2023/05/25 01:26:23;;;;;;;9.30;4.30;;;;;;;16.48;52.77;101981.47;5019592;27;97127;-70
2023/05/25 01:28:52;;;;;;;9.13;4.03;;;;;;;16.51;52.87;101976.88;5018751;27;102425;-70
2023/05/25 01:31:21;;;;;;;12.90;5.15;;;;;;;16.38;52.75;101982.78;5020080;27;100444;-70
2023/05/25 01:33:50;;;;;;;14.38;5.05;;;;;;;16.26;53.34;101982.34;5020663;27;96988;-71
2023/05/25 01:36:16;;;;;;;10.50;4.35;;;;;;;16.45;52.86;101976.25;5016412;27;98384;-71
2023/05/25 01:38:44;;;;;;;12.70;5.30;;;;;;;16.30;53.71;101983.06;5015221;27;99903;-71
2023/05/25 01:41:10;;;;;;;10.73;4.35;;;;;;;16.28;53.46;101987.59;5014648;27;98954;-72
2023/05/25 01:43:37;;;;;;;11.13;4.78;;;;;;;16.28;53.23;101983.13;5016831;27;96712;-71
2023/05/25 01:46:12;;;;;;;16.50;4.35;;;;;;;16.12;54.06;101982.00;5023359;27;98217;-71
2023/05/25 01:48:47;;;;;;;8.18;4.10;;;;;;;16.24;53.45;101984.19;5019002;27;101927;-71
2023/05/25 01:51:19;;;;;;;11.40;4.43;;;;;;;16.26;53.52;101987.69;5008296;27;99161;-71
2023/05/25 01:53:53;;;;;;;11.40;4.13;;;;;;;16.22;53.49;101975.38;5012328;27;97676;-72
2023/05/25 01:56:22;;;;;;;12.23;5.10;;;;;;;16.17;53.79;101984.50;5016872;27;96840;-72
2023/05/25 01:58:50;;;;;;;15.55;5.28;;;;;;;16.11;53.63;101985.59;5023920;27;99026;-72
2023/05/25 02:01:18;;;;;;;19.73;5.00;;;;;;;16.03;54.13;101990.34;5020173;27;99100;-72
2023/05/25 02:03:47;;;;;;;12.90;4.82;;;;;;;16.16;53.61;101980.94;5023755;27;97666;-71
2023/05/25 02:06:15;;;;;;;11.25;5.15;;;;;;;16.28;53.39;101979.59;5026784;27;98046;-71
2023/05/25 02:08:42;;;;;;;14.10;5.00;;;;;;;16.19;53.54;101978.19;5031680;27;98489;-71
2023/05/25 02:11:12;;;;;;;11.18;4.68;;;;;;;16.07;53.81;101973.34;5019672;27;99101;-71
2023/05/25 02:13:39;;;;;;;11.57;4.88;;;;;;;16.25;53.24;101974.41;5015192;27;99191;-71
2023/05/25 02:16:06;;;;;;;11.70;4.68;;;;;;;16.15;53.64;101973.88;5023056;27;97570;-71
2023/05/25 02:18:33;;;;;;;12.30;4.82;;;;;;;16.10;54.00;101964.31;5023133;27;99087;-71
2023/05/25 02:20:59;;;;;;;10.18;5.13;;;;;;;16.02;54.18;101975.28;5018918;27;98872;-70
2023/05/25 02:23:25;;;;;;;14.95;4.70;;;;;;;16.05;54.63;101976.97;5026712;27;96936;-72
2023/05/25 02:25:52;;;;;;;8.80;5.22;;;;;;;15.92;54.47;101980.13;5022838;27;97776;-72
2023/05/25 02:28:19;;;;;;;12.48;5.70;;;;;;;15.95;54.56;101981.78;5015295;27;98846;-72
2023/05/25 02:30:46;;;;;;;14.27;5.28;;;;;;;15.98;54.58;101987.00;5023734;27;97595;-72
2023/05/25 02:33:12;;;;;;;8.15;4.68;;;;;;;16.01;54.47;101996.69;5025117;27;96816;-71
2023/05/25 02:35:40;;;;;;;11.45;5.25;;;;;;;16.05;54.43;101990.31;5026383;27;97100;-71
2023/05/25 02:38:06;;;;;;;12.70;5.35;;;;;;;16.04;54.63;101992.09;5023863;27;99244;-72
2023/05/25 02:40:33;;;;;;;9.75;4.82;;;;;;;16.10;54.27;101991.00;5018173;27;98808;-72
2023/05/25 02:42:59;;;;;;;11.40;4.68;;;;;;;16.04;54.68;101994.75;5013563;27;97022;-71
2023/05/25 02:45:27;;;;;;;12.52;5.00;;;;;;;15.97;55.39;101989.72;5019519;27;97097;-76
2023/05/25 02:47:53;;;;;;;13.60;5.53;;;;;;;16.06;54.91;101995.59;5028324;27;98846;-75
2023/05/25 02:50:20;;;;;;;17.58;5.43;;;;;;;16.02;55.18;101988.63;5017225;27;98918;-76
2023/05/25 02:52:46;;;;;;;15.98;5.25;;;;;;;16.01;55.14;101983.38;5023288;27;96943;-75
2023/05/25 02:55:13;;;;;;;13.27;4.95;;;;;;;16.06;54.88;101990.25;5015029;27;97909;-75
2023/05/25 02:57:39;;;;;;;12.63;5.53;;;;;;;16.16;54.67;101983.63;5028225;27;98886;-76
2023/05/25 03:00:07;;;;;;;12.07;5.60;;;;;;;15.92;55.25;101981.91;5024043;27;99688;-74
2023/05/25 03:02:35;;;;;;;13.30;5.40;;;;;;;16.11;54.71;101982.94;5017982;27;97750;-75
2023/05/25 03:05:01;;;;;;;15.77;5.20;;;;;;;16.16;54.84;101988.94;5018535;27;97500;-76
2023/05/25 03:07:28;;;;;;;13.80;5.70;;;;;;;15.90;55.81;101975.75;5028473;27;99554;-74
2023/05/25 03:09:54;;;;;;;10.82;4.95;;;;;;;15.95;55.68;101984.44;5027217;27;98973;-75
2023/05/25 03:12:21;;;;;;;12.32;5.70;;;;;;;15.72;56.13;101989.78;5027212;27;96780;-75
2023/05/25 03:14:47;;;;;;;13.82;5.22;;;;;;;15.79;56.34;101986.84;5022813;27;96951;-76
2023/05/25 03:17:13;;;;;;;14.00;5.47;;;;;;;15.98;55.32;101988.78;5020595;27;99323;-76
2023/05/25 03:19:42;;;;;;;14.20;6.10;;;;;;;16.11;55.07;101987.41;5021629;27;99581;-76
2023/05/25 03:22:09;;;;;;;14.40;5.95;;;;;;;15.98;55.26;101991.47;5021658;27;98416;-77
2023/05/25 03:24:40;;;;;;;15.77;6.35;;;;;;;16.14;54.74;101988.16;5031320;27;96962;-76
2023/05/25 03:27:06;;;;;;;23.75;6.90;;;;;;;16.48;53.83;101992.13;5024520;27;98455;-74
2023/05/25 03:29:33;;;;;;;17.60;5.90;;;;;;;16.51;53.48;101997.34;5024746;27;100166;-74
2023/05/25 03:31:59;;;;;;;17.33;6.30;;;;;;;16.37;53.89;101999.72;5016686;27;96729;-74
2023/05/25 03:34:26;;;;;;;12.52;5.82;;;;;;;16.44;53.74;102007.41;5025802;28;97584;-76
2023/05/25 03:36:57;;;;;;;11.52;6.10;;;;;;;16.40;53.75;102003.13;5029727;27;99495;-75
2023/05/25 03:39:23;;;;;;;19.98;6.07;;;;;;;16.03;54.79;101998.34;5024924;27;100643;-75
2023/05/25 03:41:50;;;;;;;19.45;5.97;;;;;;;16.16;54.64;102006.75;5020194;27;96779;-75
2023/05/25 03:44:16;;;;;;;19.73;6.18;;;;;;;16.39;54.13;102011.19;5023076;27;101054;-74
2023/05/25 03:46:42;;;;;;;15.88;6.18;;;;;;;16.24;54.45;102005.53;5024069;27;99157;-74
2023/05/25 03:49:12;;;;;;;15.32;6.47;;;;;;;16.40;54.36;101999.59;5021712;27;99078;-73
2023/05/25 03:51:38;;;;;;;19.08;6.70;;;;;;;16.50;54.11;102004.50;5023148;27;96839;-73
2023/05/25 03:54:06;;;;;;;15.88;5.88;;;;;;;16.32;54.79;102003.44;5024890;27;97753;-73
2023/05/25 03:56:33;;;;;;;16.23;6.40;;;;;;;16.42;54.67;102006.59;5021763;27;101000;-73
2023/05/25 03:58:59;;;;;;;11.65;5.85;;;;;;;16.56;54.96;102008.72;5026835;27;99280;-73
2023/05/25 04:01:28;;;;;;;16.58;5.90;;;;;;;16.57;54.78;102022.00;5021993;27;96893;-72
2023/05/25 04:03:55;;;;;;;15.85;6.20;;;;;;;16.50;55.59;102019.63;5021958;27;98624;-72
2023/05/25 04:06:24;;;;;;;16.67;6.25;;;;;;;16.63;54.72;102018.25;5020301;27;97698;-71
2023/05/25 04:08:50;;;;;;;16.85;5.97;;;;;;;16.71;54.39;102019.69;5026364;27;99434;-72
2023/05/25 04:11:18;;;;;;;16.13;6.07;;;;;;;16.84;54.27;102021.84;5016533;27;96887;-72
2023/05/25 04:13:45;;;;;;;25.05;6.18;;;;;;;17.07;53.48;102024.41;5026661;27;96932;-72
2023/05/25 04:16:12;;;;;;;18.60;6.55;;;;;;;17.13;53.31;102021.50;5026733;27;99747;-73
2023/05/25 04:18:38;;;;;;;21.02;7.65;;;;;;;17.18;52.78;102026.63;5021272;27;98867;-72
2023/05/25 04:21:05;;;;;;;20.05;7.57;;;;;;;17.33;51.96;102028.63;5011502;27;98598;-71
2023/05/25 04:23:32;;;;;;;19.90;7.53;;;;;;;17.29;52.06;102024.38;5025701;27;97860;-72
2023/05/25 04:25:59;;;;;;;18.77;6.35;;;;;;;17.01;52.90;102032.66;5022086;27;99648;-71
2023/05/25 04:28:27;;;;;;;16.48;6.70;;;;;;;16.98;53.04;102031.03;5020062;27;98900;-71
2023/05/25 04:30:55;;;;;;;22.02;6.78;;;;;;;16.86;53.31;102034.19;5021489;27;98751;-70
2023/05/25 04:33:22;;;;;;;20.77;7.10;;;;;;;17.36;52.22;102039.19;5019952;27;97077;-72
2023/05/25 04:35:49;;;;;;;17.13;7.47;;;;;;;17.60;51.56;102038.09;5029483;27;99473;-70
2023/05/25 04:38:17;;;;;;;21.92;6.88;;;;;;;17.50;51.56;102052.81;5014397;27;99202;-72
2023/05/25 04:40:45;;;;;;;20.98;7.30;;;;;;;17.53;51.80;102033.97;5010591;28;98957;-72
2023/05/25 04:43:12;;;;;;;16.75;6.80;;;;;;;17.41;52.14;102047.88;5023433;27;96773;-71
2023/05/25 04:45:40;;;;;;;15.43;6.95;;;;;;;17.40;52.48;102051.47;5016820;27;99246;-72
2023/05/25 04:48:06;;;;;;;20.08;7.55;;;;;;;17.16;52.96;102044.50;5022034;27;99170;-72
2023/05/25 04:50:33;;;;;;;13.40;6.68;;;;;;;17.03;53.46;102047.72;5021697;27;96867;-72
2023/05/25 04:52:59;;;;;;;21.67;6.95;;;;;;;17.24;53.04;102047.75;5016225;27;96961;-72
2023/05/25 04:55:25;;;;;;;19.05;7.35;;;;;;;17.12;53.30;102046.47;5019186;27;98884;-71
2023/05/25 04:57:53;;;;;;;14.73;7.07;;;;;;;17.28;53.14;102046.66;5020271;27;98952;-71
2023/05/25 05:00:20;;;;;;;23.45;6.75;;;;;;;17.31;53.17;102046.53;5021095;27;98464;-72
2023/05/25 05:02:48;;;;;;;17.77;7.35;;;;;;;17.53;52.63;102034.84;5015229;27;98689;-72
2023/05/25 05:05:15;;;;;;;19.98;7.25;;;;;;;18.25;51.34;102034.25;5018739;27;98986;-72
2023/05/25 05:07:41;;;;;;;15.63;6.90;;;;;;;18.87;49.12;102028.59;5023852;27;98869;-73
2023/05/25 05:10:08;;;;;;;20.85;7.53;;;;;;;20.97;45.13;102028.78;5023428;27;96998;-74
2023/05/25 05:12:35;;;;;;;23.25;7.72;;;;;;;21.57;42.58;102027.91;5026704;27;97002;-71
2023/05/25 05:15:01;;;;;;;24.65;7.20;;;;;;;21.80;41.69;102033.59;5024761;27;99221;-71
2023/05/25 05:17:29;;;;;;;15.85;7.40;;;;;;;22.40;40.12;102036.06;5021271;27;98922;-71
2023/05/25 05:19:57;;;;;;;26.05;7.60;;;;;;;21.83;40.87;102030.72;5023855;27;98240;-72
2023/05/25 05:22:23;;;;;;;22.23;9.07;;;;;;;21.46;41.70;102042.03;5020047;27;96958;-71
2023/05/25 05:24:50;;;;;;;19.85;6.88;;;;;;;20.82;42.81;102040.41;5020697;27;98988;-72
2023/05/25 05:27:16;;;;;;;23.10;9.07;;;;;;;20.08;45.12;102044.63;5029079;27;98823;-72
2023/05/25 05:29:43;;;;;;;20.15;8.48;;;;;;;19.74;46.46;102053.63;5011046;27;97232;-72
2023/05/25 05:32:09;;;;;;;26.73;8.55;;;;;;;19.02;48.50;102053.75;5017931;27;96904;-72
2023/05/25 05:34:36;;;;;;;21.13;8.75;;;;;;;19.11;48.49;102050.59;5024622;27;100252;-71
2023/05/25 05:37:04;;;;;;;20.38;8.77;;;;;;;19.13;48.79;102058.56;5024490;27;98225;-73
2023/05/25 05:39:30;;;;;;;23.10;7.82;;;;;;;19.39;48.03;102063.44;5016892;27;97021;-72
2023/05/25 05:41:57;;;;;;;22.40;8.85;;;;;;;19.12;48.59;102063.03;5023318;27;96988;-72
2023/05/25 05:44:24;;;;;;;22.60;8.90;;;;;;;19.60;47.92;102064.19;5017877;27;99089;-72
2023/05/25 05:46:50;;;;;;;20.63;7.80;;;;;;;19.25;48.34;102063.28;5020267;27;98800;-72
2023/05/25 05:49:17;;;;;;;14.75;7.18;;;;;;;19.27;48.63;102069.44;5022890;27;97696;-73
2023/05/25 05:51:43;;;;;;;21.88;8.40;;;;;;;19.35;48.41;102065.44;5021025;27;96845;-72
2023/05/25 05:54:11;;;;;;;26.63;7.88;;;;;;;19.37;48.13;102065.34;5022037;27;102355;-72
2023/05/25 05:56:37;;;;;;;19.73;7.55;;;;;;;19.97;47.01;102069.31;5032978;27;98873;-73
2023/05/25 05:59:04;;;;;;;23.25;8.25;;;;;;;20.51;45.61;102065.47;5021541;27;96868;-72
2023/05/25 06:01:30;;;;;;;21.95;8.38;;;;;;;20.33;45.79;102074.56;5015188;27;97044;-72
2023/05/25 06:03:57;;;;;;;20.75;8.27;;;;;;;19.86;47.13;102069.03;5025861;27;97715;-71
2023/05/25 06:06:23;;;;;;;19.33;7.65;;;;;;;19.88;47.21;102072.53;5026200;27;98937;-72
2023/05/25 06:08:50;;;;;;;19.10;7.30;;;;;;;19.92;46.73;102074.06;5028050;27;97111;-71
2023/05/25 06:11:17;;;;;;;25.40;8.45;;;;;;;20.07;46.54;102084.00;5023345;27;96825;-71
2023/05/25 06:13:44;;;;;;;22.75;8.65;;;;;;;19.82;47.14;102078.22;5015986;27;99207;-71
2023/05/25 06:16:11;;;;;;;17.77;7.22;;;;;;;19.90;47.15;102082.19;5026883;27;101957;-72
2023/05/25 06:18:37;;;;;;;26.15;8.90;;;;;;;20.24;46.19;102083.94;5024443;27;96979;-72
2023/05/25 06:21:04;;;;;;;19.35;7.05;;;;;;;20.71;45.13;102084.97;5023517;27;96968;-73
2023/05/25 06:23:31;;;;;;;20.00;7.57;;;;;;;20.72;44.83;102090.25;5026280;27;99423;-72
2023/05/25 06:25:57;;;;;;;20.52;6.85;;;;;;;20.91;44.30;102082.88;5028311;27;98898;-72
2023/05/25 06:28:25;;;;;;;19.85;7.82;;;;;;;21.04;44.25;102083.88;5019161;27;97657;-72
2023/05/25 06:30:51;;;;;;;22.73;7.72;;;;;;;21.15;43.65;102085.06;5018425;27;96798;-73
2023/05/25 06:33:18;;;;;;;24.13;7.93;;;;;;;21.13;43.78;102087.88;5017584;27;99331;-73
2023/05/25 06:35:45;;;;;;;21.02;7.15;;;;;;;21.22;43.50;102087.34;5015210;27;98871;-72
2023/05/25 06:38:11;;;;;;;21.42;7.13;;;;;;;21.23;43.72;102083.72;5022897;27;98070;-71
2023/05/25 06:40:38;;;;;;;24.52;7.95;;;;;;;21.63;42.85;102090.25;5028307;27;97313;-72
2023/05/25 06:43:04;;;;;;;19.58;7.28;;;;;;;21.74;42.32;102085.09;5024389;27;98941;-72
2023/05/25 06:45:32;;;;;;;18.88;6.90;;;;;;;22.26;41.46;102089.94;5026447;27;98893;-72
2023/05/25 06:47:59;;;;;;;19.55;6.97;;;;;;;22.31;40.84;102095.94;5019559;27;98672;-72
2023/05/25 06:50:25;;;;;;;15.18;6.25;;;;;;;22.64;40.36;102093.75;5026353;27;97019;-73
2023/05/25 06:52:52;;;;;;;23.23;6.45;;;;;;;22.72;40.03;102093.25;5018456;27;99453;-72
2023/05/25 06:55:18;;;;;;;22.02;7.35;;;;;;;23.10;39.13;102080.00;5029958;27;98768;-72
2023/05/25 06:57:45;;;;;;;17.05;5.97;;;;;;;23.30;38.52;102087.56;5028666;27;97140;-72
2023/05/25 07:00:13;;;;;;;17.92;5.95;;;;;;;23.37;38.01;102088.88;5025958;27;97184;-73
2023/05/25 07:02:40;;;;;;;21.88;6.85;;;;;;;23.72;37.69;102094.59;5029568;27;99319;-72
2023/05/25 07:05:07;;;;;;;22.02;7.40;;;;;;;23.58;37.98;102091.97;5017581;27;101184;-71
2023/05/25 07:07:34;;;;;;;18.05;5.82;;;;;;;23.16;38.85;102090.34;5023038;27;97483;-71
2023/05/25 07:10:02;;;;;;;21.27;5.40;;;;;;;23.11;38.92;102081.69;5026610;27;97577;-71
2023/05/25 07:12:29;;;;;;;14.82;5.22;;;;;;;23.03;38.10;102086.75;5026859;27;102860;-71
2023/05/25 07:14:57;;;;;;;17.48;6.15;;;;;;;22.84;38.51;102088.94;5023714;27;100154;-72
2023/05/25 07:17:23;;;;;;;27.67;7.60;;;;;;;22.73;39.19;102092.31;5025103;27;97373;-71
2023/05/25 07:19:51;;;;;;;19.40;5.57;;;;;;;22.61;38.23;102099.34;5026121;27;97040;-71
2023/05/25 07:22:18;;;;;;;19.27;5.88;;;;;;;22.85;38.01;102085.25;5018963;27;99394;-71
2023/05/25 07:24:44;;;;;;;23.88;6.47;;;;;;;22.78;38.10;102092.00;5036271;27;98902;-71
2023/05/25 07:27:11;;;;;;;16.15;4.57;;;;;;;23.20;36.46;102091.88;5028870;27;96803;-71
2023/05/25 07:29:38;;;;;;;13.77;5.22;;;;;;;23.39;36.17;102091.47;5035795;27;97892;-71
2023/05/25 07:32:05;;;;;;;16.13;5.40;;;;;;;23.64;35.43;102090.69;5026082;27;99302;-71
2023/05/25 07:34:31;;;;;;;17.20;4.93;;;;;;;23.13;35.17;102090.53;5028615;27;99197;-72
2023/05/25 07:36:59;;;;;;;12.50;4.43;;;;;;;23.51;35.21;102090.66;5027002;27;96752;-70
2023/05/25 07:39:25;;;;;;;14.35;4.10;;;;;;;23.53;34.02;102101.38;5033407;27;97072;-72
2023/05/25 07:41:52;;;;;;;17.20;4.55;;;;;;;23.90;33.64;102096.97;5016490;27;99148;-74
2023/05/25 07:44:18;;;;;;;15.60;4.57;;;;;;;23.71;33.90;102102.78;5021453;27;97915;-76
2023/05/25 07:46:45;;;;;;;15.75;4.40;;;;;;;23.67;34.01;102104.84;5021270;27;97379;-76
2023/05/25 07:49:14;;;;;;;13.52;4.10;;;;;;;24.16;33.58;102104.09;5026274;27;97428;-76
2023/05/25 07:51:41;;;;;;;16.23;4.78;;;;;;;24.42;33.44;102105.81;5018205;27;97919;-76
2023/05/25 07:54:09;;;;;;;18.08;4.68;;;;;;;24.25;33.16;102108.00;5019333;27;98731;-76
2023/05/25 07:56:35;;;;;;;17.52;4.55;;;;;;;23.96;33.60;102101.97;5022563;27;97402;-76
2023/05/25 07:59:02;;;;;;;15.63;4.35;;;;;;;24.33;32.84;102111.03;5022305;27;96883;-76
2023/05/25 08:01:28;;;;;;;18.50;4.78;;;;;;;24.35;32.48;102109.94;5014871;27;100095;-76
2023/05/25 08:03:55;;;;;;;13.30;3.60;;;;;;;24.09;32.61;102114.47;5018826;27;98968;-76
2023/05/25 08:06:22;;;;;;;17.05;4.53;;;;;;;23.85;33.73;102116.19;5014292;27;97236;-76
2023/05/25 08:08:48;;;;;;;16.98;4.45;;;;;;;24.01;33.20;102111.47;5021567;27;97754;-76
2023/05/25 08:11:16;;;;;;;8.70;3.70;;;;;;;24.53;32.33;102121.28;5018200;27;99220;-76
2023/05/25 08:13:43;;;;;;;14.52;4.57;;;;;;;24.52;31.67;102111.44;5017789;27;98699;-76
2023/05/25 08:16:10;;;;;;;16.55;5.25;;;;;;;24.72;32.31;102115.38;5018506;27;97551;-75
2023/05/25 08:18:36;;;;;;;12.63;4.43;;;;;;;24.25;32.40;102116.13;5021357;27;97733;-77
2023/05/25 08:21:03;;;;;;;16.05;3.92;;;;;;;24.17;32.42;102114.78;5018493;27;99383;-75
2023/05/25 08:23:30;;;;;;;16.30;3.95;;;;;;;24.08;33.15;102117.31;5021566;27;99815;-76
2023/05/25 08:25:57;;;;;;;17.05;4.10;;;;;;;24.00;32.96;102111.56;5020174;27;96994;-76
2023/05/25 08:28:25;;;;;;;18.42;4.18;;;;;;;24.00;33.24;102115.13;5020371;27;100153;-75
2023/05/25 08:30:52;;;;;;;14.07;4.00;;;;;;;23.94;33.36;102110.16;5025678;27;99774;-76
2023/05/25 08:33:19;;;;;;;12.05;3.63;;;;;;;24.25;32.72;102108.88;5019931;27;98863;-76
2023/05/25 08:35:47;;;;;;;9.90;3.80;;;;;;;24.02;32.82;102115.91;5015040;27;96745;-76
2023/05/25 08:38:13;;;;;;;18.42;5.35;;;;;;;23.81;32.93;102112.88;5030494;27;97138;-76
2023/05/25 08:40:42;;;;;;;16.10;4.65;;;;;;;23.59;32.79;102114.44;5021470;27;99055;-76
2023/05/25 08:43:08;;;;;;;16.13;4.30;;;;;;;23.40;33.59;102117.50;5021026;27;99839;-76
2023/05/25 08:45:36;;;;;;;17.20;4.15;;;;;;;23.26;34.01;102107.63;5032533;27;97458;-77
2023/05/25 08:48:10;;;;;;;15.32;4.18;;;;;;;23.18;34.38;102107.28;5027271;27;96904;-75
2023/05/25 08:50:38;;;;;;;25.00;5.63;;;;;;;23.41;34.53;102109.31;5024780;27;98983;-76
2023/05/25 08:53:08;;;;;;;15.10;4.45;;;;;;;23.64;33.93;102109.59;5024545;27;98762;-77
2023/05/25 08:55:37;;;;;;;13.23;4.05;;;;;;;24.08;32.75;102110.06;5030786;27;97584;-77
2023/05/25 08:58:10;;;;;;;12.38;4.47;;;;;;;24.18;33.05;102113.81;5028802;27;97194;-77
2023/05/25 09:00:44;;;;;;;19.40;4.45;;;;;;;24.27;32.74;102117.75;5020513;27;99000;-75
2023/05/25 09:03:14;;;;;;;9.40;3.40;;;;;;;23.88;32.47;102120.53;5019407;27;99424;-76
2023/05/25 09:05:41;;;;;;;15.13;3.97;;;;;;;;;;5018527;27;97931;-76
2023/05/25 09:08:08;;;;;;;11.98;3.17;;;;;;;24.03;31.89;102120.31;5016110;27;96675;-76
2023/05/25 09:10:35;;;;;;;12.40;4.07;;;;;;;23.76;32.10;102122.25;5012711;27;98963;-76
2023/05/25 09:13:03;;;;;;;15.48;4.78;;;;;;;24.01;32.05;102111.47;5016224;27;97799;-76
2023/05/25 09:15:29;;;;;;;11.00;3.63;;;;;;;24.35;31.38;102114.50;5025300;27;96806;-75
2023/05/25 09:17:57;;;;;;;11.27;3.85;;;;;;;24.17;31.97;102124.72;5020968;27;96996;-76
2023/05/25 09:20:30;;;;;;;11.43;4.15;;;;;;;23.98;32.28;102127.00;5017728;27;99050;-76
2023/05/25 09:22:57;;;;;;;13.10;4.72;;;;;;;23.63;32.15;102118.66;5027240;27;98867;-76
2023/05/25 09:25:25;;;;;;;11.98;4.05;;;;;;;24.23;31.43;102125.19;5022088;27;97118;-76
2023/05/25 09:27:51;;;;;;;15.07;4.32;;;;;;;24.36;30.60;102129.72;5023881;27;96770;-77
2023/05/25 09:30:18;;;;;;;12.20;3.90;;;;;;;24.54;30.99;102125.72;5011146;27;97628;-77
2023/05/25 09:32:44;;;;;;;13.23;5.00;;;;;;;24.44;31.37;102127.34;5015003;27;97961;-75
2023/05/25 09:35:15;;;;;;;17.83;6.47;;;;;;;23.93;32.56;102129.16;5019848;27;97532;-76
2023/05/25 09:37:42;;;;;;;17.52;4.15;;;;;;;23.69;33.24;102120.94;5026619;27;96805;-76
2023/05/25 09:40:15;;;;;;;13.40;4.75;;;;;;;23.83;33.20;102120.81;5022746;27;97774;-76
2023/05/25 09:42:42;;;;;;;13.30;3.67;;;;;;;23.99;33.31;102124.19;5024309;27;96851;-76
2023/05/25 09:45:09;;;;;;;13.40;5.30;;;;;;;24.25;32.66;102129.63;5019044;27;97008;-77
2023/05/25 09:47:36;;;;;;;14.25;4.65;;;;;;;24.24;32.35;102128.75;5028061;27;97008;-76
2023/05/25 09:50:03;;;;;;;14.93;4.00;;;;;;;24.15;31.93;102129.41;5020702;27;101844;-76
2023/05/25 09:52:31;;;;;;;13.40;3.83;;;;;;;23.97;32.27;102136.94;5023753;27;99593;-77
2023/05/25 09:54:58;;;;;;;12.23;6.28;;;;;;;23.44;32.89;102136.06;5016623;28;97504;-76
2023/05/25 09:57:26;;;;;;;14.05;4.32;;;;;;;23.54;32.30;102127.38;5027292;27;97514;-77
2023/05/25 09:59:53;;;;;;;15.25;3.55;;;;;;;23.48;32.58;102136.75;5023878;27;97895;-77
2023/05/25 10:02:19;;;;;;;17.65;4.40;;;;;;;23.95;32.07;102133.50;5030534;27;98362;-76
2023/05/25 10:04:45;;;;;;;10.02;3.55;;;;;;;24.22;31.54;102128.84;5026079;27;97187;-76
2023/05/25 10:07:13;;;;;;;13.85;3.55;;;;;;;24.42;31.48;102131.97;5032041;27;97224;-77
2023/05/25 10:09:45;;;;;;;9.10;3.78;;;;;;;24.03;32.00;102135.63;5020646;27;98848;-77
2023/05/25 10:12:17;;;;;;;15.38;3.42;;;;;;;24.02;31.90;102129.41;5026787;27;97377;-76
2023/05/25 10:14:43;;;;;;;13.13;4.35;;;;;;;23.79;32.66;102138.22;5022034;27;97525;-77
2023/05/25 10:17:11;;;;;;;13.52;4.63;;;;;;;23.37;33.57;102134.75;5030841;27;97232;-76
2023/05/25 10:19:44;;;;;;;12.93;4.63;;;;;;;23.32;34.12;102128.78;5023244;27;97797;-76
2023/05/25 10:22:18;;;;;;;17.30;4.50;;;;;;;22.88;34.50;102141.66;5031800;27;99225;-77
2023/05/25 10:24:53;;;;;;;10.82;4.35;;;;;;;23.47;33.69;102137.72;5024408;27;96805;-78
2023/05/25 10:27:25;;;;;;;12.03;4.13;;;;;;;23.71;33.50;102140.56;5032190;27;97222;-76
2023/05/25 10:29:52;;;;;;;12.23;4.50;;;;;;;24.36;32.63;102143.22;5033221;27;97762;-76
2023/05/25 10:32:19;;;;;;;10.40;4.07;;;;;;;24.81;32.17;102139.06;5029462;27;98591;-77
2023/05/25 10:34:46;;;;;;;13.95;4.57;;;;;;;24.98;32.01;102141.41;5031337;27;96801;-76
2023/05/25 10:37:14;;;;;;;11.93;4.13;;;;;;;24.82;31.06;102141.63;5030142;27;96971;-77
2023/05/25 10:39:44;;;;;;;12.77;4.28;;;;;;;24.72;31.20;102137.88;5035326;27;97758;-77
2023/05/25 10:42:12;;;;;;;13.68;3.92;;;;;;;24.49;31.12;102141.38;5033509;27;98817;-76
2023/05/25 10:44:40;;;;;;;17.88;4.25;;;;;;;24.87;31.45;102139.47;5035313;27;96727;-77
2023/05/25 10:47:07;;;;;;;9.98;4.60;;;;;;;24.59;31.74;102145.16;5035480;27;96946;-77
2023/05/25 10:49:50;;;;;;;17.95;4.82;;;;;;;24.08;32.59;102138.91;5042059;27;97810;-77
2023/05/25 10:52:18;;;;;;;15.10;4.90;;;;;;;24.23;33.29;102137.81;5036858;27;98027;-76
2023/05/25 10:54:46;;;;;;;11.98;4.35;;;;;;;24.18;33.08;102135.44;5037049;27;96852;-76
2023/05/25 10:57:19;;;;;;;9.73;3.83;;;;;;;23.77;33.70;102138.31;5041844;27;96688;-75
2023/05/25 10:59:50;;;;;;;14.20;7.88;;;;;;;23.82;33.48;102129.91;5031346;27;99044;-77
2023/05/25 11:02:18;;;;;;;9.77;4.82;;;;;;;23.86;33.54;102134.13;5028833;27;98812;-78
2023/05/25 11:04:48;;;;;;;13.73;4.65;;;;;;;23.99;32.96;102126.91;5026256;27;99360;-76
2023/05/25 11:07:15;;;;;;;11.32;4.15;;;;;;;24.47;32.24;102130.69;5025693;27;96862;-77
2023/05/25 11:09:43;;;;;;;8.10;3.70;;;;;;;24.33;32.21;102130.81;5026193;27;99317;-76
2023/05/25 11:12:21;;;;;;;12.20;4.35;;;;;;;24.20;32.75;102128.13;5021869;27;99238;-75
2023/05/25 11:15:11;;;;;;;13.60;4.53;;;;;;;24.30;32.37;102133.72;5047121;27;97074;-77
2023/05/25 11:18:02;;;;;;;10.52;4.15;;;;;;;24.39;32.05;102132.22;5050157;27;96935;-77
2023/05/25 11:20:29;;;;;;;11.82;4.18;;;;;;;24.45;32.19;102132.63;5035002;27;98163;-77